sensor_id;sensor_type;location;lat;lon;timestamp;temperature;humidity
7894;DHT22;51343;51.396;6.656;2023-04-25T00:00:06;6.30;99.90
7894;DHT22;51343;51.396;6.656;2023-04-25T00:02:36;6.20;1.00
7894;DHT22;51343;51.396;6.656;2023-04-25T00:05:03;6.20;1.00
7894;DHT22;51343;51.396;6.656;2023-04-25T00:07:33;6.20;22.20
7894;DHT22;51343;51.396;6.656;2023-04-25T00:10:00;6.10;99.90
7894;DHT22;51343;51.396;6.656;2023-04-25T00:12:27;6.10;99.90
7894;DHT22;51343;51.396;6.656;2023-04-25T00:14:56;6.10;99.90
7894;DHT22;51343;51.396;6.656;2023-04-25T00:17:26;6.10;99.90
7894;DHT22;51343;51.396;6.656;2023-04-25T00:19:55;6.20;99.90
7894;DHT22;51343;51.396;6.656;2023-04-25T00:22:24;6.20;1.00
7894;DHT22;51343;51.396;6.656;2023-04-25T00:24:53;6.20;1.00
7894;DHT22;51343;51.396;6.656;2023-04-25T00:27:22;6.20;20.40
7894;DHT22;51343;51.396;6.656;2023-04-25T00:29:49;6.20;1.00
7894;DHT22;51343;51.396;6.656;2023-04-25T00:32:17;6.30;99.90
7894;DHT22;51343;51.396;6.656;2023-04-25T00:34:45;6.30;75.70
7894;DHT22;51343;51.396;6.656;2023-04-25T00:37:14;6.40;1.00
7894;DHT22;51343;51.396;6.656;2023-04-25T00:39:41;6.40;1.00
7894;DHT22;51343;51.396;6.656;2023-04-25T00:42:08;6.50;1.00
7894;DHT22;51343;51.396;6.656;2023-04-25T00:44:38;6.50;1.00
7894;DHT22;51343;51.396;6.656;2023-04-25T00:47:05;6.50;1.00
7894;DHT22;51343;51.396;6.656;2023-04-25T00:49:33;6.50;1.00
7894;DHT22;51343;51.396;6.656;2023-04-25T00:52:00;6.60;1.00
7894;DHT22;51343;51.396;6.656;2023-04-25T00:54:28;6.60;1.00
7894;DHT22;51343;51.396;6.656;2023-04-25T00:56:56;6.60;1.00
7894;DHT22;51343;51.396;6.656;2023-04-25T00:59:23;6.60;99.90
7894;DHT22;51343;51.396;6.656;2023-04-25T01:01:53;6.60;1.00
7894;DHT22;51343;51.396;6.656;2023-04-25T01:04:20;6.60;99.90
7894;DHT22;51343;51.396;6.656;2023-04-25T01:06:50;6.70;1.00
7894;DHT22;51343;51.396;6.656;2023-04-25T01:09:16;6.70;1.00
7894;DHT22;51343;51.396;6.656;2023-04-25T01:11:46;6.70;1.00
7894;DHT22;51343;51.396;6.656;2023-04-25T01:14:13;6.70;1.00
7894;DHT22;51343;51.396;6.656;2023-04-25T01:16:41;6.70;1.00
7894;DHT22;51343;51.396;6.656;2023-04-25T01:19:10;6.70;1.00
7894;DHT22;51343;51.396;6.656;2023-04-25T01:21:39;6.80;1.00
7894;DHT22;51343;51.396;6.656;2023-04-25T01:24:07;6.70;1.00
7894;DHT22;51343;51.396;6.656;2023-04-25T01:26:36;6.80;1.00
7894;DHT22;51343;51.396;6.656;2023-04-25T01:29:05;6.70;99.90
7894;DHT22;51343;51.396;6.656;2023-04-25T01:31:33;6.70;99.90
7894;DHT22;51343;51.396;6.656;2023-04-25T01:34:03;6.80;1.00
7894;DHT22;51343;51.396;6.656;2023-04-25T01:36:32;6.70;1.00
7894;DHT22;51343;51.396;6.656;2023-04-25T01:39:03;6.70;1.00
7894;DHT22;51343;51.396;6.656;2023-04-25T01:41:33;6.80;99.90
7894;DHT22;51343;51.396;6.656;2023-04-25T01:44:03;6.80;99.90
7894;DHT22;51343;51.396;6.656;2023-04-25T01:46:30;6.80;1.00
7894;DHT22;51343;51.396;6.656;2023-04-25T01:48:58;6.80;99.90
7894;DHT22;51343;51.396;6.656;2023-04-25T01:51:24;6.80;99.90
7894;DHT22;51343;51.396;6.656;2023-04-25T01:53:53;6.80;99.90
7894;DHT22;51343;51.396;6.656;2023-04-25T01:56:22;6.80;1.00
7894;DHT22;51343;51.396;6.656;2023-04-25T01:58:49;6.80;99.90
7894;DHT22;51343;51.396;6.656;2023-04-25T02:01:16;6.80;99.90
7894;DHT22;51343;51.396;6.656;2023-04-25T02:03:43;6.80;99.90
7894;DHT22;51343;51.396;6.656;2023-04-25T02:06:10;6.80;99.90
7894;DHT22;51343;51.396;6.656;2023-04-25T02:08:37;6.80;1.00
7894;DHT22;51343;51.396;6.656;2023-04-25T02:11:03;6.70;1.00
7894;DHT22;51343;51.396;6.656;2023-04-25T02:13:36;6.70;1.00
7894;DHT22;51343;51.396;6.656;2023-04-25T02:16:03;6.60;99.90
7894;DHT22;51343;51.396;6.656;2023-04-25T02:18:31;6.60;1.00
7894;DHT22;51343;51.396;6.656;2023-04-25T02:21:00;6.60;1.00
7894;DHT22;51343;51.396;6.656;2023-04-25T02:23:28;6.60;1.00
7894;DHT22;51343;51.396;6.656;2023-04-25T02:25:55;6.50;99.90
7894;DHT22;51343;51.396;6.656;2023-04-25T02:28:23;6.50;99.90
7894;DHT22;51343;51.396;6.656;2023-04-25T02:30:51;6.50;99.90
7894;DHT22;51343;51.396;6.656;2023-04-25T02:33:18;6.50;1.00
7894;DHT22;51343;51.396;6.656;2023-04-25T02:35:47;6.50;99.90
7894;DHT22;51343;51.396;6.656;2023-04-25T02:38:14;6.40;1.00
7894;DHT22;51343;51.396;6.656;2023-04-25T02:40:42;6.50;99.90
7894;DHT22;51343;51.396;6.656;2023-04-25T02:43:11;6.40;56.90
7894;DHT22;51343;51.396;6.656;2023-04-25T02:45:38;6.40;1.00
7894;DHT22;51343;51.396;6.656;2023-04-25T02:48:09;6.40;1.00
7894;DHT22;51343;51.396;6.656;2023-04-25T02:50:37;6.40;26.50
7894;DHT22;51343;51.396;6.656;2023-04-25T02:53:04;6.30;1.00
7894;DHT22;51343;51.396;6.656;2023-04-25T02:55:31;6.20;99.90
7894;DHT22;51343;51.396;6.656;2023-04-25T02:57:59;6.20;1.00
7894;DHT22;51343;51.396;6.656;2023-04-25T03:00:26;6.20;1.00
7894;DHT22;51343;51.396;6.656;2023-04-25T03:02:57;6.20;99.90
7894;DHT22;51343;51.396;6.656;2023-04-25T03:05:25;6.20;1.00
7894;DHT22;51343;51.396;6.656;2023-04-25T03:07:52;6.20;1.00
7894;DHT22;51343;51.396;6.656;2023-04-25T03:10:21;6.20;1.00
7894;DHT22;51343;51.396;6.656;2023-04-25T03:12:48;6.20;1.00
7894;DHT22;51343;51.396;6.656;2023-04-25T03:15:15;6.20;12.90
7894;DHT22;51343;51.396;6.656;2023-04-25T03:17:42;6.20;99.90
7894;DHT22;51343;51.396;6.656;2023-04-25T03:20:12;6.10;20.20
7894;DHT22;51343;51.396;6.656;2023-04-25T03:22:41;6.10;99.90
7894;DHT22;51343;51.396;6.656;2023-04-25T03:25:09;6.10;1.00
7894;DHT22;51343;51.396;6.656;2023-04-25T03:27:39;6.10;1.00
7894;DHT22;51343;51.396;6.656;2023-04-25T03:30:08;6.00;50.20
7894;DHT22;51343;51.396;6.656;2023-04-25T03:32:35;6.00;99.90
7894;DHT22;51343;51.396;6.656;2023-04-25T03:35:02;6.10;1.00
7894;DHT22;51343;51.396;6.656;2023-04-25T03:37:30;6.10;99.90
7894;DHT22;51343;51.396;6.656;2023-04-25T03:39:58;6.10;1.00
7894;DHT22;51343;51.396;6.656;2023-04-25T03:42:25;6.00;89.20
7894;DHT22;51343;51.396;6.656;2023-04-25T03:44:54;6.00;1.00
7894;DHT22;51343;51.396;6.656;2023-04-25T03:47:21;6.00;1.00
7894;DHT22;51343;51.396;6.656;2023-04-25T03:49:49;6.00;1.00
7894;DHT22;51343;51.396;6.656;2023-04-25T03:52:17;6.10;99.90
7894;DHT22;51343;51.396;6.656;2023-04-25T03:54:45;6.00;1.00
7894;DHT22;51343;51.396;6.656;2023-04-25T03:57:15;6.00;99.90
7894;DHT22;51343;51.396;6.656;2023-04-25T03:59:43;6.00;1.00
7894;DHT22;51343;51.396;6.656;2023-04-25T04:02:10;6.00;99.90
7894;DHT22;51343;51.396;6.656;2023-04-25T04:04:37;6.00;1.00
7894;DHT22;51343;51.396;6.656;2023-04-25T04:07:04;6.00;99.90
7894;DHT22;51343;51.396;6.656;2023-04-25T04:09:35;6.00;99.90
7894;DHT22;51343;51.396;6.656;2023-04-25T04:12:02;5.90;99.90
7894;DHT22;51343;51.396;6.656;2023-04-25T04:14:31;5.80;99.90
7894;DHT22;51343;51.396;6.656;2023-04-25T04:16:59;5.80;1.00
7894;DHT22;51343;51.396;6.656;2023-04-25T04:19:27;5.70;1.00
7894;DHT22;51343;51.396;6.656;2023-04-25T04:21:54;5.60;30.60
7894;DHT22;51343;51.396;6.656;2023-04-25T04:24:21;5.60;1.00
7894;DHT22;51343;51.396;6.656;2023-04-25T04:26:54;5.50;95.00
7894;DHT22;51343;51.396;6.656;2023-04-25T04:29:22;5.50;1.00
7894;DHT22;51343;51.396;6.656;2023-04-25T04:31:50;5.40;1.00
7894;DHT22;51343;51.396;6.656;2023-04-25T04:34:19;5.40;99.90
7894;DHT22;51343;51.396;6.656;2023-04-25T04:36:46;5.30;99.90
7894;DHT22;51343;51.396;6.656;2023-04-25T04:39:13;5.30;1.00
7894;DHT22;51343;51.396;6.656;2023-04-25T04:41:40;5.30;1.00
7894;DHT22;51343;51.396;6.656;2023-04-25T04:44:09;5.20;1.00
7894;DHT22;51343;51.396;6.656;2023-04-25T04:46:36;5.20;99.90
7894;DHT22;51343;51.396;6.656;2023-04-25T04:49:12;5.20;1.00
7894;DHT22;51343;51.396;6.656;2023-04-25T04:51:40;5.20;1.00
7894;DHT22;51343;51.396;6.656;2023-04-25T04:54:09;5.20;99.90
7894;DHT22;51343;51.396;6.656;2023-04-25T04:56:36;5.10;1.00
7894;DHT22;51343;51.396;6.656;2023-04-25T04:59:04;5.10;1.00
7894;DHT22;51343;51.396;6.656;2023-04-25T05:01:31;5.10;1.00
7894;DHT22;51343;51.396;6.656;2023-04-25T05:04:01;5.00;1.00
7894;DHT22;51343;51.396;6.656;2023-04-25T05:06:31;5.00;99.90
7894;DHT22;51343;51.396;6.656;2023-04-25T05:09:00;5.00;1.00
7894;DHT22;51343;51.396;6.656;2023-04-25T05:11:28;5.10;99.90
7894;DHT22;51343;51.396;6.656;2023-04-25T05:13:55;5.10;1.00
7894;DHT22;51343;51.396;6.656;2023-04-25T05:16:24;5.10;1.00
7894;DHT22;51343;51.396;6.656;2023-04-25T05:18:51;5.20;1.00
7894;DHT22;51343;51.396;6.656;2023-04-25T05:21:20;5.10;90.50
7894;DHT22;51343;51.396;6.656;2023-04-25T05:23:51;5.20;1.00
7894;DHT22;51343;51.396;6.656;2023-04-25T05:26:21;5.20;1.00
7894;DHT22;51343;51.396;6.656;2023-04-25T05:28:50;5.30;1.00
7894;DHT22;51343;51.396;6.656;2023-04-25T05:31:17;5.40;99.90
7894;DHT22;51343;51.396;6.656;2023-04-25T05:33:46;5.50;99.90
7894;DHT22;51343;51.396;6.656;2023-04-25T05:36:13;5.60;1.00
7894;DHT22;51343;51.396;6.656;2023-04-25T05:38:42;5.70;1.00
7894;DHT22;51343;51.396;6.656;2023-04-25T05:41:11;5.80;1.00
7894;DHT22;51343;51.396;6.656;2023-04-25T05:43:38;5.90;99.90
7894;DHT22;51343;51.396;6.656;2023-04-25T05:46:10;6.00;1.00
7894;DHT22;51343;51.396;6.656;2023-04-25T05:48:38;6.00;98.90
7894;DHT22;51343;51.396;6.656;2023-04-25T05:51:05;6.10;99.90
7894;DHT22;51343;51.396;6.656;2023-04-25T05:53:32;6.10;1.00
7894;DHT22;51343;51.396;6.656;2023-04-25T05:55:59;6.10;99.90
7894;DHT22;51343;51.396;6.656;2023-04-25T06:01:12;6.30;99.90
7894;DHT22;51343;51.396;6.656;2023-04-25T06:03:39;6.30;99.90
7894;DHT22;51343;51.396;6.656;2023-04-25T06:06:08;6.40;1.00
7894;DHT22;51343;51.396;6.656;2023-04-25T06:08:35;6.40;1.00
7894;DHT22;51343;51.396;6.656;2023-04-25T06:11:03;6.50;1.00
7894;DHT22;51343;51.396;6.656;2023-04-25T06:13:30;6.50;99.90
7894;DHT22;51343;51.396;6.656;2023-04-25T06:15:57;6.50;95.20
7894;DHT22;51343;51.396;6.656;2023-04-25T06:18:25;6.50;99.90
7894;DHT22;51343;51.396;6.656;2023-04-25T06:20:54;6.60;99.90
7894;DHT22;51343;51.396;6.656;2023-04-25T06:23:21;6.60;99.90
7894;DHT22;51343;51.396;6.656;2023-04-25T06:25:49;6.60;99.90
7894;DHT22;51343;51.396;6.656;2023-04-25T06:28:16;6.60;99.90
7894;DHT22;51343;51.396;6.656;2023-04-25T06:30:43;6.80;99.90
7894;DHT22;51343;51.396;6.656;2023-04-25T06:33:10;6.90;99.90
7894;DHT22;51343;51.396;6.656;2023-04-25T06:35:45;6.90;1.00
7894;DHT22;51343;51.396;6.656;2023-04-25T06:38:12;6.90;1.00
7894;DHT22;51343;51.396;6.656;2023-04-25T06:40:39;6.80;1.00
7894;DHT22;51343;51.396;6.656;2023-04-25T06:43:05;6.80;1.00
7894;DHT22;51343;51.396;6.656;2023-04-25T06:45:32;6.90;1.00
7894;DHT22;51343;51.396;6.656;2023-04-25T06:47:59;7.00;1.00
7894;DHT22;51343;51.396;6.656;2023-04-25T06:50:26;7.00;1.00
7894;DHT22;51343;51.396;6.656;2023-04-25T06:52:54;7.00;1.00
7894;DHT22;51343;51.396;6.656;2023-04-25T06:55:23;7.10;1.00
7894;DHT22;51343;51.396;6.656;2023-04-25T06:57:50;7.10;1.00
7894;DHT22;51343;51.396;6.656;2023-04-25T07:00:18;7.20;1.00
7894;DHT22;51343;51.396;6.656;2023-04-25T07:02:45;7.30;1.00
7894;DHT22;51343;51.396;6.656;2023-04-25T07:05:12;7.40;1.00
7894;DHT22;51343;51.396;6.656;2023-04-25T07:07:39;7.30;1.00
7894;DHT22;51343;51.396;6.656;2023-04-25T07:10:07;7.20;1.00
7894;DHT22;51343;51.396;6.656;2023-04-25T07:12:34;7.20;1.00
7894;DHT22;51343;51.396;6.656;2023-04-25T07:15:01;7.30;1.00
7894;DHT22;51343;51.396;6.656;2023-04-25T07:17:31;7.40;99.90
7894;DHT22;51343;51.396;6.656;2023-04-25T07:19:58;7.60;99.90
7894;DHT22;51343;51.396;6.656;2023-04-25T07:22:25;7.60;99.90
7894;DHT22;51343;51.396;6.656;2023-04-25T07:24:52;7.60;99.90
7894;DHT22;51343;51.396;6.656;2023-04-25T07:27:22;7.80;99.90
7894;DHT22;51343;51.396;6.656;2023-04-25T07:29:48;7.80;99.90
7894;DHT22;51343;51.396;6.656;2023-04-25T07:32:16;7.80;99.90
7894;DHT22;51343;51.396;6.656;2023-04-25T07:34:43;7.90;99.90
7894;DHT22;51343;51.396;6.656;2023-04-25T07:37:10;7.90;39.80
7894;DHT22;51343;51.396;6.656;2023-04-25T07:39:38;7.90;1.00
7894;DHT22;51343;51.396;6.656;2023-04-25T07:42:04;8.00;1.00
7894;DHT22;51343;51.396;6.656;2023-04-25T07:44:34;8.00;1.00
7894;DHT22;51343;51.396;6.656;2023-04-25T07:47:04;8.10;11.50
7894;DHT22;51343;51.396;6.656;2023-04-25T07:49:32;8.00;11.20
7894;DHT22;51343;51.396;6.656;2023-04-25T07:52:00;8.20;1.00
7894;DHT22;51343;51.396;6.656;2023-04-25T07:54:26;8.30;1.00
7894;DHT22;51343;51.396;6.656;2023-04-25T07:56:53;8.40;99.90
7894;DHT22;51343;51.396;6.656;2023-04-25T07:59:20;8.50;1.00
7894;DHT22;51343;51.396;6.656;2023-04-25T08:01:48;8.50;1.00
7894;DHT22;51343;51.396;6.656;2023-04-25T08:04:15;8.70;1.00
7894;DHT22;51343;51.396;6.656;2023-04-25T08:06:42;8.80;2.20
7894;DHT22;51343;51.396;6.656;2023-04-25T08:09:09;8.70;1.00
7894;DHT22;51343;51.396;6.656;2023-04-25T08:11:36;8.70;1.00
7894;DHT22;51343;51.396;6.656;2023-04-25T08:14:03;8.70;1.00
7894;DHT22;51343;51.396;6.656;2023-04-25T08:16:30;8.70;1.00
7894;DHT22;51343;51.396;6.656;2023-04-25T08:18:58;8.60;1.00
7894;DHT22;51343;51.396;6.656;2023-04-25T08:21:25;8.60;24.00
7894;DHT22;51343;51.396;6.656;2023-04-25T08:23:52;8.50;1.00
7894;DHT22;51343;51.396;6.656;2023-04-25T08:26:19;8.70;1.00
7894;DHT22;51343;51.396;6.656;2023-04-25T08:28:46;8.90;1.00
7894;DHT22;51343;51.396;6.656;2023-04-25T08:31:13;8.90;1.00
7894;DHT22;51343;51.396;6.656;2023-04-25T08:33:40;9.00;1.00
7894;DHT22;51343;51.396;6.656;2023-04-25T08:36:08;9.30;1.00
7894;DHT22;51343;51.396;6.656;2023-04-25T08:38:37;9.30;1.00
7894;DHT22;51343;51.396;6.656;2023-04-25T08:41:05;9.20;1.00
7894;DHT22;51343;51.396;6.656;2023-04-25T08:46:03;9.20;1.00
7894;DHT22;51343;51.396;6.656;2023-04-25T08:48:31;9.30;1.00
7894;DHT22;51343;51.396;6.656;2023-04-25T08:50:59;9.20;1.00
7894;DHT22;51343;51.396;6.656;2023-04-25T08:53:30;9.00;1.00
7894;DHT22;51343;51.396;6.656;2023-04-25T08:55:58;8.70;1.00
7894;DHT22;51343;51.396;6.656;2023-04-25T08:58:32;8.50;1.00
7894;DHT22;51343;51.396;6.656;2023-04-25T09:01:00;8.40;1.00
7894;DHT22;51343;51.396;6.656;2023-04-25T09:03:27;8.30;1.00
7894;DHT22;51343;51.396;6.656;2023-04-25T09:05:54;8.40;1.00
7894;DHT22;51343;51.396;6.656;2023-04-25T09:08:24;8.60;1.00
7894;DHT22;51343;51.396;6.656;2023-04-25T09:10:53;8.90;1.00
7894;DHT22;51343;51.396;6.656;2023-04-25T09:13:23;9.10;1.00
7894;DHT22;51343;51.396;6.656;2023-04-25T09:15:52;9.30;1.00
7894;DHT22;51343;51.396;6.656;2023-04-25T09:18:22;9.50;1.00
7894;DHT22;51343;51.396;6.656;2023-04-25T09:20:51;9.80;1.00
7894;DHT22;51343;51.396;6.656;2023-04-25T09:23:19;10.00;1.00
7894;DHT22;51343;51.396;6.656;2023-04-25T09:25:47;10.30;1.00
7894;DHT22;51343;51.396;6.656;2023-04-25T09:28:15;10.70;1.00
7894;DHT22;51343;51.396;6.656;2023-04-25T09:30:41;10.60;1.00
7894;DHT22;51343;51.396;6.656;2023-04-25T09:33:09;10.40;1.00
7894;DHT22;51343;51.396;6.656;2023-04-25T09:35:36;10.50;1.00
7894;DHT22;51343;51.396;6.656;2023-04-25T09:38:08;10.50;1.00
7894;DHT22;51343;51.396;6.656;2023-04-25T09:40:48;10.50;1.00
7894;DHT22;51343;51.396;6.656;2023-04-25T09:43:20;10.40;1.00
7894;DHT22;51343;51.396;6.656;2023-04-25T09:45:48;10.40;1.00
7894;DHT22;51343;51.396;6.656;2023-04-25T09:48:17;10.40;1.00
7894;DHT22;51343;51.396;6.656;2023-04-25T09:50:44;10.60;1.00
7894;DHT22;51343;51.396;6.656;2023-04-25T09:53:10;10.60;1.00
7894;DHT22;51343;51.396;6.656;2023-04-25T09:55:37;10.70;1.00
7894;DHT22;51343;51.396;6.656;2023-04-25T09:58:05;10.70;1.00
7894;DHT22;51343;51.396;6.656;2023-04-25T10:00:34;10.70;1.00
7894;DHT22;51343;51.396;6.656;2023-04-25T10:03:01;10.70;1.00
7894;DHT22;51343;51.396;6.656;2023-04-25T10:05:30;10.40;1.00
7894;DHT22;51343;51.396;6.656;2023-04-25T10:07:58;10.50;1.00
7894;DHT22;51343;51.396;6.656;2023-04-25T10:10:26;10.70;1.00
7894;DHT22;51343;51.396;6.656;2023-04-25T10:12:53;10.90;1.00
7894;DHT22;51343;51.396;6.656;2023-04-25T10:15:20;11.20;1.00
7894;DHT22;51343;51.396;6.656;2023-04-25T10:17:50;11.90;1.00
7894;DHT22;51343;51.396;6.656;2023-04-25T10:20:17;11.90;1.00
7894;DHT22;51343;51.396;6.656;2023-04-25T10:22:44;11.60;1.00
7894;DHT22;51343;51.396;6.656;2023-04-25T10:25:11;11.30;1.00
7894;DHT22;51343;51.396;6.656;2023-04-25T10:27:38;11.10;1.00
7894;DHT22;51343;51.396;6.656;2023-04-25T10:30:06;11.00;1.00
7894;DHT22;51343;51.396;6.656;2023-04-25T10:32:35;10.80;1.00
7894;DHT22;51343;51.396;6.656;2023-04-25T10:35:13;10.80;1.00
7894;DHT22;51343;51.396;6.656;2023-04-25T10:37:56;10.80;1.00
7894;DHT22;51343;51.396;6.656;2023-04-25T10:42:52;11.00;1.00
7894;DHT22;51343;51.396;6.656;2023-04-25T10:45:19;11.10;1.00
7894;DHT22;51343;51.396;6.656;2023-04-25T10:47:46;11.30;1.00
7894;DHT22;51343;51.396;6.656;2023-04-25T10:50:15;12.00;1.00
7894;DHT22;51343;51.396;6.656;2023-04-25T10:52:42;12.70;1.00
7894;DHT22;51343;51.396;6.656;2023-04-25T10:55:09;13.00;1.00
7894;DHT22;51343;51.396;6.656;2023-04-25T10:57:37;12.70;94.50
7894;DHT22;51343;51.396;6.656;2023-04-25T11:00:12;12.20;1.00
7894;DHT22;51343;51.396;6.656;2023-04-25T11:02:41;12.00;1.00
7894;DHT22;51343;51.396;6.656;2023-04-25T11:05:10;11.70;1.00
7894;DHT22;51343;51.396;6.656;2023-04-25T11:07:42;11.40;1.00
7894;DHT22;51343;51.396;6.656;2023-04-25T11:10:10;11.30;99.90
7894;DHT22;51343;51.396;6.656;2023-04-25T11:12:37;11.20;99.90
7894;DHT22;51343;51.396;6.656;2023-04-25T11:15:04;11.10;99.90
7894;DHT22;51343;51.396;6.656;2023-04-25T11:17:31;11.00;99.90
7894;DHT22;51343;51.396;6.656;2023-04-25T11:20:00;11.10;1.00
7894;DHT22;51343;51.396;6.656;2023-04-25T11:22:31;10.90;1.00
7894;DHT22;51343;51.396;6.656;2023-04-25T11:25:00;10.60;99.40
7894;DHT22;51343;51.396;6.656;2023-04-25T11:27:31;10.20;90.90
7894;DHT22;51343;51.396;6.656;2023-04-25T11:29:58;9.90;1.00
7894;DHT22;51343;51.396;6.656;2023-04-25T11:32:24;9.70;1.00
7894;DHT22;51343;51.396;6.656;2023-04-25T11:34:52;9.30;1.00
7894;DHT22;51343;51.396;6.656;2023-04-25T11:37:18;9.10;99.90
7894;DHT22;51343;51.396;6.656;2023-04-25T11:39:46;9.30;1.00
7894;DHT22;51343;51.396;6.656;2023-04-25T11:42:14;9.70;1.00
7894;DHT22;51343;51.396;6.656;2023-04-25T11:44:41;9.70;1.00
7894;DHT22;51343;51.396;6.656;2023-04-25T11:47:08;9.60;1.00
7894;DHT22;51343;51.396;6.656;2023-04-25T11:49:35;9.30;1.00
7894;DHT22;51343;51.396;6.656;2023-04-25T11:52:01;8.90;1.00
7894;DHT22;51343;51.396;6.656;2023-04-25T11:54:28;8.50;99.90
7894;DHT22;51343;51.396;6.656;2023-04-25T11:56:55;8.40;99.90
7894;DHT22;51343;51.396;6.656;2023-04-25T11:59:24;8.40;99.90
7894;DHT22;51343;51.396;6.656;2023-04-25T12:01:51;8.50;99.90
7894;DHT22;51343;51.396;6.656;2023-04-25T12:04:19;8.60;4.20
7894;DHT22;51343;51.396;6.656;2023-04-25T12:06:46;8.90;1.00
7894;DHT22;51343;51.396;6.656;2023-04-25T12:09:14;8.90;1.00
7894;DHT22;51343;51.396;6.656;2023-04-25T12:11:43;9.00;1.00
7894;DHT22;51343;51.396;6.656;2023-04-25T12:14:10;9.10;1.00
7894;DHT22;51343;51.396;6.656;2023-04-25T12:16:43;9.30;1.00
7894;DHT22;51343;51.396;6.656;2023-04-25T12:19:13;9.40;1.00
7894;DHT22;51343;51.396;6.656;2023-04-25T12:21:40;9.50;1.00
7894;DHT22;51343;51.396;6.656;2023-04-25T12:24:10;9.70;1.00
7894;DHT22;51343;51.396;6.656;2023-04-25T12:26:50;10.00;1.00
7894;DHT22;51343;51.396;6.656;2023-04-25T12:29:17;10.10;1.00
7894;DHT22;51343;51.396;6.656;2023-04-25T12:31:46;10.40;1.00
7894;DHT22;51343;51.396;6.656;2023-04-25T12:34:12;11.00;1.00
7894;DHT22;51343;51.396;6.656;2023-04-25T12:36:39;12.30;1.00
7894;DHT22;51343;51.396;6.656;2023-04-25T12:39:06;13.30;1.00
7894;DHT22;51343;51.396;6.656;2023-04-25T12:41:34;13.30;1.00
7894;DHT22;51343;51.396;6.656;2023-04-25T12:44:01;12.70;1.00
7894;DHT22;51343;51.396;6.656;2023-04-25T12:46:28;11.90;1.00
7894;DHT22;51343;51.396;6.656;2023-04-25T12:48:56;11.70;1.00
7894;DHT22;51343;51.396;6.656;2023-04-25T12:51:23;11.50;1.00
7894;DHT22;51343;51.396;6.656;2023-04-25T12:53:50;11.60;1.00
7894;DHT22;51343;51.396;6.656;2023-04-25T12:56:17;11.60;1.00
7894;DHT22;51343;51.396;6.656;2023-04-25T12:58:45;12.10;1.00
7894;DHT22;51343;51.396;6.656;2023-04-25T13:01:13;13.00;1.00
7894;DHT22;51343;51.396;6.656;2023-04-25T13:03:40;13.80;1.00
7894;DHT22;51343;51.396;6.656;2023-04-25T13:06:08;14.30;1.00
7894;DHT22;51343;51.396;6.656;2023-04-25T13:08:35;14.40;1.00
7894;DHT22;51343;51.396;6.656;2023-04-25T13:11:03;14.90;1.00
7894;DHT22;51343;51.396;6.656;2023-04-25T13:13:30;14.60;1.00
7894;DHT22;51343;51.396;6.656;2023-04-25T13:15:57;14.20;1.00
7894;DHT22;51343;51.396;6.656;2023-04-25T13:18:23;13.50;1.00
7894;DHT22;51343;51.396;6.656;2023-04-25T13:20:51;13.00;1.00
7894;DHT22;51343;51.396;6.656;2023-04-25T13:23:19;12.50;1.00
7894;DHT22;51343;51.396;6.656;2023-04-25T13:25:46;11.90;1.00
7894;DHT22;51343;51.396;6.656;2023-04-25T13:28:15;11.40;1.00
7894;DHT22;51343;51.396;6.656;2023-04-25T13:30:42;11.00;1.00
7894;DHT22;51343;51.396;6.656;2023-04-25T13:33:09;10.80;1.00
7894;DHT22;51343;51.396;6.656;2023-04-25T13:35:38;10.60;1.00
7894;DHT22;51343;51.396;6.656;2023-04-25T13:38:05;10.50;99.90
7894;DHT22;51343;51.396;6.656;2023-04-25T13:40:33;10.50;1.00
7894;DHT22;51343;51.396;6.656;2023-04-25T13:43:00;10.60;1.00
7894;DHT22;51343;51.396;6.656;2023-04-25T13:45:28;11.30;1.00
7894;DHT22;51343;51.396;6.656;2023-04-25T13:47:55;12.40;1.00
7894;DHT22;51343;51.396;6.656;2023-04-25T13:50:22;12.80;1.00
7894;DHT22;51343;51.396;6.656;2023-04-25T13:52:48;12.80;1.00
7894;DHT22;51343;51.396;6.656;2023-04-25T13:55:15;12.50;1.00
7894;DHT22;51343;51.396;6.656;2023-04-25T13:57:43;11.90;1.00
7894;DHT22;51343;51.396;6.656;2023-04-25T14:00:11;11.70;1.00
7894;DHT22;51343;51.396;6.656;2023-04-25T14:02:38;11.40;1.00
7894;DHT22;51343;51.396;6.656;2023-04-25T14:05:07;11.20;1.00
7894;DHT22;51343;51.396;6.656;2023-04-25T14:07:34;11.00;1.00
7894;DHT22;51343;51.396;6.656;2023-04-25T14:10:02;10.90;1.00
7894;DHT22;51343;51.396;6.656;2023-04-25T14:12:29;11.30;1.00
7894;DHT22;51343;51.396;6.656;2023-04-25T14:14:57;11.90;1.00
7894;DHT22;51343;51.396;6.656;2023-04-25T14:17:24;13.30;1.00
7894;DHT22;51343;51.396;6.656;2023-04-25T14:19:51;14.60;1.00
7894;DHT22;51343;51.396;6.656;2023-04-25T14:22:17;15.70;1.00
7894;DHT22;51343;51.396;6.656;2023-04-25T14:24:44;15.70;1.00
7894;DHT22;51343;51.396;6.656;2023-04-25T14:27:11;14.70;1.00
7894;DHT22;51343;51.396;6.656;2023-04-25T14:29:38;14.00;1.00
7894;DHT22;51343;51.396;6.656;2023-04-25T14:32:07;13.60;1.00
7894;DHT22;51343;51.396;6.656;2023-04-25T14:34:37;13.20;1.00
7894;DHT22;51343;51.396;6.656;2023-04-25T14:37:03;12.90;1.00
7894;DHT22;51343;51.396;6.656;2023-04-25T14:39:30;12.70;1.00
7894;DHT22;51343;51.396;6.656;2023-04-25T14:41:57;12.50;1.00
7894;DHT22;51343;51.396;6.656;2023-04-25T14:44:23;12.20;1.00
7894;DHT22;51343;51.396;6.656;2023-04-25T14:46:50;11.90;1.00
7894;DHT22;51343;51.396;6.656;2023-04-25T14:49:18;11.40;1.00
7894;DHT22;51343;51.396;6.656;2023-04-25T14:51:46;11.00;1.00
7894;DHT22;51343;51.396;6.656;2023-04-25T14:54:13;10.70;1.00
7894;DHT22;51343;51.396;6.656;2023-04-25T14:56:40;10.50;1.00
7894;DHT22;51343;51.396;6.656;2023-04-25T14:59:08;10.40;1.00
7894;DHT22;51343;51.396;6.656;2023-04-25T15:01:34;10.60;1.00
7894;DHT22;51343;51.396;6.656;2023-04-25T15:04:01;10.80;1.00
7894;DHT22;51343;51.396;6.656;2023-04-25T15:06:30;11.00;1.00
7894;DHT22;51343;51.396;6.656;2023-04-25T15:08:56;11.40;1.00
7894;DHT22;51343;51.396;6.656;2023-04-25T15:11:23;11.70;1.00
7894;DHT22;51343;51.396;6.656;2023-04-25T15:13:50;11.60;1.00
7894;DHT22;51343;51.396;6.656;2023-04-25T15:16:16;11.30;1.00
7894;DHT22;51343;51.396;6.656;2023-04-25T15:18:46;11.10;1.00
7894;DHT22;51343;51.396;6.656;2023-04-25T15:21:14;10.90;1.00
7894;DHT22;51343;51.396;6.656;2023-04-25T15:23:42;10.70;1.00
7894;DHT22;51343;51.396;6.656;2023-04-25T15:26:08;10.60;1.00
7894;DHT22;51343;51.396;6.656;2023-04-25T15:28:36;10.70;1.00
7894;DHT22;51343;51.396;6.656;2023-04-25T15:31:03;10.60;1.00
7894;DHT22;51343;51.396;6.656;2023-04-25T15:33:30;10.60;1.00
7894;DHT22;51343;51.396;6.656;2023-04-25T15:35:57;10.70;1.00
7894;DHT22;51343;51.396;6.656;2023-04-25T15:38:24;10.70;1.00
7894;DHT22;51343;51.396;6.656;2023-04-25T15:40:53;10.50;1.00
7894;DHT22;51343;51.396;6.656;2023-04-25T15:43:21;10.40;1.00
7894;DHT22;51343;51.396;6.656;2023-04-25T15:45:48;10.30;1.00
7894;DHT22;51343;51.396;6.656;2023-04-25T15:48:15;10.30;1.00
7894;DHT22;51343;51.396;6.656;2023-04-25T15:50:42;10.40;1.00
7894;DHT22;51343;51.396;6.656;2023-04-25T15:53:08;11.00;1.00
7894;DHT22;51343;51.396;6.656;2023-04-25T15:55:35;11.50;1.00
7894;DHT22;51343;51.396;6.656;2023-04-25T15:58:04;11.80;1.00
7894;DHT22;51343;51.396;6.656;2023-04-25T16:00:31;11.70;1.00
7894;DHT22;51343;51.396;6.656;2023-04-25T16:03:00;11.40;1.00
7894;DHT22;51343;51.396;6.656;2023-04-25T16:05:27;11.10;1.00
7894;DHT22;51343;51.396;6.656;2023-04-25T16:07:54;10.80;1.00
7894;DHT22;51343;51.396;6.656;2023-04-25T16:10:21;10.50;1.00
7894;DHT22;51343;51.396;6.656;2023-04-25T16:12:47;10.40;1.00
7894;DHT22;51343;51.396;6.656;2023-04-25T16:15:16;10.30;1.00
7894;DHT22;51343;51.396;6.656;2023-04-25T16:17:42;10.30;1.00